createdAt,value
2022-12-11T00:00:40.548Z,99.93
2022-12-11T00:03:15.403Z,100.00
2022-12-11T00:05:44.388Z,100.00
2022-12-11T00:08:12.625Z,99.90
2022-12-11T00:10:48.927Z,99.89
2022-12-11T00:13:16.875Z,100.00
2022-12-11T00:15:44.849Z,100.00
2022-12-11T00:18:14.006Z,100.00
2022-12-11T00:20:42.198Z,100.00
2022-12-11T00:23:10.810Z,100.00
2022-12-11T00:25:45.066Z,100.00
2022-12-11T00:28:13.934Z,100.00
2022-12-11T00:30:42.866Z,100.00
2022-12-11T00:33:11.713Z,100.00
2022-12-11T00:35:40.368Z,100.00
2022-12-11T00:38:08.820Z,100.00
2022-12-11T00:40:37.847Z,99.71
2022-12-11T00:43:07.620Z,100.00
2022-12-11T00:45:38.141Z,100.00
2022-12-11T00:48:06.934Z,100.00
2022-12-11T00:50:35.185Z,100.00
2022-12-11T00:53:03.391Z,100.00
2022-12-11T00:55:31.611Z,100.00
2022-12-11T00:57:59.554Z,100.00
2022-12-11T01:00:28.998Z,100.00
2022-12-11T01:02:57.077Z,100.00
2022-12-11T01:05:25.153Z,100.00
2022-12-11T01:07:53.198Z,100.00
2022-12-11T01:10:26.042Z,100.00
2022-12-11T01:12:55.508Z,100.00
2022-12-11T01:15:24.378Z,100.00
2022-12-11T01:17:54.389Z,100.00
2022-12-11T01:20:24.811Z,100.00
2022-12-11T01:22:54.061Z,100.00
2022-12-11T01:25:22.448Z,100.00
2022-12-11T01:27:52.773Z,100.00
2022-12-11T01:30:22.960Z,100.00
2022-12-11T01:32:51.138Z,100.00
2022-12-11T01:35:21.678Z,100.00
2022-12-11T01:37:50.188Z,100.00
2022-12-11T01:40:20.978Z,100.00
2022-12-11T01:42:49.020Z,100.00
2022-12-11T01:45:33.279Z,100.00
2022-12-11T01:48:05.587Z,100.00
2022-12-11T01:50:37.236Z,99.54
2022-12-11T01:53:08.204Z,99.52
2022-12-11T01:55:38.944Z,99.42
2022-12-11T01:58:07.704Z,99.46
2022-12-11T02:00:35.751Z,99.49
2022-12-11T02:03:03.859Z,99.07
2022-12-11T02:05:31.806Z,98.78
2022-12-11T02:08:03.445Z,98.88
2022-12-11T02:10:49.629Z,98.60
2022-12-11T02:13:23.377Z,98.91
2022-12-11T02:15:58.720Z,98.44
2022-12-11T02:18:32.901Z,98.27
2022-12-11T02:21:10.254Z,98.05
2022-12-11T02:24:08.442Z,98.23
2022-12-11T02:26:54.430Z,98.15
2022-12-11T02:29:30.796Z,97.98
2022-12-11T02:32:04.153Z,98.09
2022-12-11T02:34:38.967Z,98.17
2022-12-11T02:37:10.297Z,98.20
2022-12-11T02:39:42.086Z,97.90
2022-12-11T02:42:12.392Z,97.70
2022-12-11T02:44:42.518Z,97.70
2022-12-11T02:47:17.631Z,97.28
2022-12-11T02:49:50.612Z,97.53
2022-12-11T02:52:23.408Z,97.42
2022-12-11T02:54:53.341Z,97.35
2022-12-11T02:57:28.809Z,97.84
2022-12-11T02:59:58.166Z,97.80
2022-12-11T03:02:26.028Z,98.00
2022-12-11T03:04:54.145Z,97.66
2022-12-11T03:07:26.486Z,97.63
2022-12-11T03:09:54.867Z,97.42
2022-12-11T03:12:26.733Z,97.11
2022-12-11T03:14:54.889Z,97.23
2022-12-11T03:17:26.596Z,97.28
2022-12-11T03:20:00.949Z,97.32
2022-12-11T03:22:35.111Z,97.17
2022-12-11T03:25:06.035Z,97.22
2022-12-11T03:27:38.141Z,97.14
2022-12-11T03:30:10.182Z,97.16
2022-12-11T03:32:44.909Z,97.21
2022-12-11T03:35:18.670Z,97.23
2022-12-11T03:37:49.367Z,97.41
2022-12-11T03:40:20.565Z,97.33
2022-12-11T03:42:52.042Z,97.17
2022-12-11T03:45:22.251Z,97.13
2022-12-11T03:47:53.843Z,96.75
2022-12-11T03:50:24.972Z,96.71
2022-12-11T03:52:54.887Z,96.91
2022-12-11T03:55:23.998Z,96.81
2022-12-11T03:57:52.117Z,96.82
2022-12-11T04:00:22.176Z,96.67
2022-12-11T04:03:11.188Z,96.57
2022-12-11T04:05:41.911Z,96.74
2022-12-11T04:08:10.032Z,96.84
2022-12-11T04:10:38.187Z,96.69
2022-12-11T04:13:06.254Z,96.87
2022-12-11T04:15:33.473Z,96.72
2022-12-11T04:18:20.378Z,96.58
2022-12-11T04:21:05.663Z,96.65
2022-12-11T04:23:50.972Z,96.37
2022-12-11T04:26:21.393Z,96.36
2022-12-11T04:28:50.454Z,96.17
2022-12-11T04:31:19.813Z,96.23
2022-12-11T04:33:49.628Z,95.90
2022-12-11T04:36:18.543Z,95.63
2022-12-11T04:38:46.502Z,95.32
2022-12-11T04:41:16.764Z,95.22
2022-12-11T04:43:45.505Z,94.92
2022-12-11T04:46:15.488Z,95.28
2022-12-11T04:48:44.365Z,94.98
2022-12-11T04:51:14.303Z,94.90
2022-12-11T04:53:42.537Z,94.98
2022-12-11T04:56:12.924Z,94.66
2022-12-11T04:58:41.892Z,94.70
2022-12-11T05:01:10.398Z,94.47
2022-12-11T05:03:38.535Z,94.55
2022-12-11T05:06:07.015Z,94.44
2022-12-11T05:08:38.859Z,94.50
2022-12-11T05:11:09.702Z,94.76
2022-12-11T05:13:38.136Z,95.07
2022-12-11T05:16:07.520Z,95.30
2022-12-11T05:18:35.750Z,95.40
2022-12-11T05:21:07.222Z,96.00
2022-12-11T05:23:37.182Z,96.40
2022-12-11T05:26:07.058Z,96.21
2022-12-11T05:28:36.987Z,96.08
2022-12-11T05:31:07.751Z,96.04
2022-12-11T05:33:36.374Z,96.20
2022-12-11T05:36:05.508Z,96.35
2022-12-11T05:38:33.616Z,96.19
2022-12-11T05:41:05.363Z,95.86
2022-12-11T05:43:36.554Z,95.94
2022-12-11T05:46:08.730Z,95.54
2022-12-11T05:48:37.725Z,95.19
2022-12-11T05:51:06.748Z,95.49
2022-12-11T05:53:34.883Z,95.32
2022-12-11T05:56:05.303Z,94.75
2022-12-11T05:58:33.397Z,95.10
2022-12-11T06:01:01.865Z,95.13
2022-12-11T06:03:29.834Z,94.68
2022-12-11T06:05:57.821Z,94.60
2022-12-11T06:08:25.940Z,94.38
2022-12-11T06:10:53.998Z,95.04
2022-12-11T06:13:23.327Z,94.65
2022-12-11T06:15:51.405Z,94.54
2022-12-11T06:18:19.627Z,94.34
2022-12-11T06:20:47.587Z,94.39
2022-12-11T06:23:15.620Z,94.48
2022-12-11T06:25:43.582Z,94.69
2022-12-11T06:28:11.539Z,94.38
2022-12-11T06:30:41.137Z,94.83
2022-12-11T06:33:09.033Z,94.40
2022-12-11T06:35:42.064Z,94.73
2022-12-11T06:38:10.751Z,94.46
2022-12-11T06:40:38.998Z,94.68
2022-12-11T06:43:06.984Z,94.21
2022-12-11T06:45:35.039Z,94.65
2022-12-11T06:48:04.791Z,94.57
2022-12-11T06:50:32.743Z,94.71
2022-12-11T06:53:00.749Z,94.04
2022-12-11T06:55:28.659Z,94.47
2022-12-11T06:57:56.771Z,94.17
2022-12-11T07:00:24.727Z,93.87
2022-12-11T07:02:52.724Z,93.89
2022-12-11T07:05:22.100Z,93.85
2022-12-11T07:07:50.128Z,93.81
2022-12-11T07:10:18.235Z,93.80
2022-12-11T07:12:46.239Z,93.53
2022-12-11T07:15:14.360Z,93.53
2022-12-11T07:17:42.505Z,92.93
2022-12-11T07:20:11.414Z,93.22
2022-12-11T07:22:46.273Z,93.27
2022-12-11T07:25:15.352Z,93.16
2022-12-11T07:27:43.558Z,93.25
2022-12-11T07:30:12.832Z,92.90
2022-12-11T07:32:40.943Z,93.20
2022-12-11T07:35:10.261Z,92.92
2022-12-11T07:37:42.883Z,92.71
2022-12-11T07:40:11.635Z,92.72
2022-12-11T07:42:45.815Z,92.58
2022-12-11T07:45:14.390Z,92.72
2022-12-11T07:47:42.900Z,92.35
2022-12-11T07:50:11.139Z,92.77
2022-12-11T07:52:39.142Z,92.38
2022-12-11T07:55:09.481Z,92.03
2022-12-11T07:57:37.738Z,91.75
2022-12-11T08:00:06.819Z,91.91
2022-12-11T08:02:40.404Z,91.85
2022-12-11T08:05:09.911Z,92.16
2022-12-11T08:07:38.237Z,92.11
2022-12-11T08:10:08.274Z,92.05
2022-12-11T08:12:36.264Z,92.17
2022-12-11T08:15:04.475Z,92.36
2022-12-11T08:17:38.359Z,92.28
2022-12-11T08:20:09.457Z,91.85
2022-12-11T08:22:37.390Z,92.30
2022-12-11T08:25:05.876Z,92.40
2022-12-11T08:27:35.269Z,92.13
2022-12-11T08:30:02.977Z,92.08
2022-12-11T08:32:30.940Z,92.69
2022-12-11T08:34:58.930Z,92.34
2022-12-11T08:37:26.878Z,92.36
2022-12-11T08:39:54.852Z,92.62
2022-12-11T08:42:22.857Z,92.50
2022-12-11T08:44:52.273Z,92.26
2022-12-11T08:47:21.300Z,92.66
2022-12-11T08:49:49.179Z,92.39
2022-12-11T08:52:17.229Z,92.33
2022-12-11T08:54:45.161Z,92.53
2022-12-11T08:57:13.242Z,91.86
2022-12-11T08:59:42.005Z,92.05
2022-12-11T09:02:13.473Z,91.73
2022-12-11T09:04:41.822Z,91.63
2022-12-11T09:07:09.775Z,91.59
2022-12-11T09:09:37.879Z,91.36
2022-12-11T09:12:06.376Z,91.07
2022-12-11T09:14:34.524Z,90.81
2022-12-11T09:17:02.466Z,91.13
2022-12-11T09:19:32.497Z,91.27
2022-12-11T09:22:00.644Z,91.03
2022-12-11T09:24:28.665Z,90.90
2022-12-11T09:26:56.625Z,91.17
2022-12-11T09:29:24.587Z,90.98
2022-12-11T09:31:52.574Z,91.10
2022-12-11T09:34:23.657Z,91.37
2022-12-11T09:36:56.814Z,91.41
2022-12-11T09:39:24.596Z,91.31
2022-12-11T09:42:00.030Z,91.27
2022-12-11T09:44:41.362Z,91.67
2022-12-11T09:47:28.552Z,91.49
2022-12-11T09:50:04.278Z,91.59
2022-12-11T09:52:38.742Z,91.63
2022-12-11T09:55:16.160Z,91.89
2022-12-11T09:57:57.662Z,91.32
2022-12-11T10:00:34.852Z,91.28
2022-12-11T10:03:26.900Z,91.37
2022-12-11T10:06:06.627Z,91.02
2022-12-11T10:08:42.893Z,90.95
2022-12-11T10:11:33.185Z,90.73
2022-12-11T10:14:07.916Z,90.33
2022-12-11T10:16:40.291Z,90.05
2022-12-11T10:19:15.877Z,89.61
2022-12-11T10:21:44.595Z,89.49
2022-12-11T10:24:42.191Z,89.35
2022-12-11T10:27:19.388Z,88.46
2022-12-11T10:29:48.104Z,88.93
2022-12-11T10:32:24.593Z,88.46
2022-12-11T10:35:00.301Z,88.47
2022-12-11T10:37:28.340Z,87.88
2022-12-11T10:39:57.720Z,88.11
2022-12-11T10:42:25.699Z,87.80
2022-12-11T10:44:58.798Z,87.75
2022-12-11T10:47:26.996Z,87.87
2022-12-11T10:49:58.282Z,88.07
2022-12-11T10:52:28.640Z,87.77
2022-12-11T10:55:01.164Z,87.59
2022-12-11T10:57:30.887Z,87.25
2022-12-11T11:00:00.537Z,86.98
2022-12-11T11:02:32.087Z,86.76
2022-12-11T11:05:02.102Z,86.52
2022-12-11T11:07:33.194Z,86.49
2022-12-11T11:10:15.327Z,86.66
2022-12-11T11:12:45.588Z,86.55
2022-12-11T11:15:16.945Z,86.50
2022-12-11T11:17:54.557Z,86.55
2022-12-11T11:20:26.646Z,86.32
2022-12-11T11:22:57.522Z,86.07
2022-12-11T11:25:28.912Z,86.02
2022-12-11T11:27:59.280Z,85.85
2022-12-11T11:30:30.122Z,85.38
2022-12-11T11:33:02.249Z,85.50
2022-12-11T11:35:32.016Z,84.75
2022-12-11T11:38:07.801Z,84.65
2022-12-11T11:40:42.464Z,84.88
2022-12-11T11:43:19.526Z,84.95
2022-12-11T11:45:54.858Z,85.05
2022-12-11T11:48:35.229Z,84.99
2022-12-11T11:51:14.792Z,85.08
2022-12-11T11:53:46.434Z,85.13
2022-12-11T11:56:22.400Z,85.61
2022-12-11T11:59:02.320Z,85.38
2022-12-11T12:01:30.809Z,85.45
2022-12-11T12:03:59.413Z,85.24
2022-12-11T12:06:39.664Z,85.18
2022-12-11T12:09:22.053Z,85.03
2022-12-11T12:12:00.467Z,85.02
2022-12-11T12:17:28.055Z,84.82
2022-12-11T12:20:08.129Z,85.03
2022-12-11T12:22:52.524Z,84.61
2022-12-11T12:25:26.993Z,85.04
2022-12-11T12:28:04.362Z,84.88
2022-12-11T12:30:41.402Z,84.79
2022-12-11T12:33:26.398Z,84.92
2022-12-11T12:36:04.956Z,84.94
2022-12-11T12:38:46.315Z,84.94
2022-12-11T12:41:19.784Z,84.52
2022-12-11T12:44:01.308Z,84.45
2022-12-11T12:46:44.641Z,84.44
2022-12-11T12:49:17.486Z,83.97
2022-12-11T12:51:47.087Z,83.87
2022-12-11T12:54:18.856Z,83.68
2022-12-11T12:56:48.496Z,83.45
2022-12-11T12:59:26.416Z,83.43
2022-12-11T13:01:58.501Z,82.90
2022-12-11T13:04:55.439Z,83.52
2022-12-11T13:07:29.824Z,83.39
2022-12-11T13:10:06.651Z,83.75
2022-12-11T13:12:45.865Z,83.41
2022-12-11T13:15:28.452Z,83.51
2022-12-11T13:17:58.605Z,82.96
2022-12-11T13:20:28.366Z,83.01
2022-12-11T13:23:10.056Z,82.57
2022-12-11T13:25:50.674Z,82.69
2022-12-11T13:28:26.223Z,82.47
2022-12-11T13:31:07.650Z,82.71
2022-12-11T13:33:44.844Z,82.50
2022-12-11T13:36:39.519Z,82.94
2022-12-11T13:39:17.103Z,82.29
2022-12-11T13:41:48.384Z,82.51
2022-12-11T13:44:22.871Z,82.49
2022-12-11T13:46:52.444Z,82.76
2022-12-11T13:49:25.599Z,82.81
2022-12-11T13:51:56.987Z,82.27
2022-12-11T13:54:25.799Z,82.71
2022-12-11T13:57:02.392Z,82.26
2022-12-11T13:59:34.101Z,82.05
2022-12-11T14:02:07.244Z,81.83
2022-12-11T14:04:36.955Z,82.22
2022-12-11T14:07:09.159Z,81.86
2022-12-11T14:09:40.395Z,81.82
2022-12-11T14:12:10.424Z,81.95
2022-12-11T14:14:43.206Z,82.00
2022-12-11T14:17:15.622Z,81.89
2022-12-11T14:19:49.144Z,82.00
2022-12-11T14:22:22.733Z,81.47
2022-12-11T14:24:52.331Z,81.96
2022-12-11T14:27:21.331Z,81.90
2022-12-11T14:29:49.377Z,82.12
2022-12-11T14:32:21.748Z,81.79
2022-12-11T14:34:52.546Z,81.81
2022-12-11T14:37:24.565Z,81.76
2022-12-11T14:39:59.207Z,82.12
2022-12-11T14:42:31.028Z,82.08
2022-12-11T14:45:04.267Z,81.84
2022-12-11T14:47:35.463Z,81.60
2022-12-11T14:50:09.710Z,81.32
2022-12-11T14:52:42.287Z,81.37
2022-12-11T14:55:16.898Z,81.53
2022-12-11T14:57:48.663Z,81.83
2022-12-11T15:00:25.291Z,81.25
2022-12-11T15:03:01.423Z,81.41
2022-12-11T15:05:37.142Z,81.69
2022-12-11T15:08:24.804Z,81.47
2022-12-11T15:11:03.104Z,81.39
2022-12-11T15:13:31.783Z,81.21
2022-12-11T15:16:00.587Z,81.09
2022-12-11T15:18:32.070Z,80.89
2022-12-11T15:21:05.251Z,81.26
2022-12-11T15:23:33.273Z,81.01
2022-12-11T15:26:02.877Z,81.00
2022-12-11T15:28:34.314Z,80.88
2022-12-11T15:31:04.197Z,80.86
2022-12-11T15:33:34.785Z,81.23
2022-12-11T15:36:07.965Z,81.78
2022-12-11T15:38:39.527Z,81.81
2022-12-11T15:41:14.173Z,82.07
2022-12-11T15:43:42.638Z,81.97
2022-12-11T15:46:10.646Z,82.18
2022-12-11T15:48:38.666Z,82.29
2022-12-11T15:51:08.422Z,82.27
2022-12-11T15:53:36.365Z,82.50
2022-12-11T15:56:04.628Z,82.63
2022-12-11T15:58:32.794Z,82.54
2022-12-11T16:01:00.803Z,82.38
2022-12-11T16:03:28.761Z,82.15
2022-12-11T16:05:56.850Z,81.86
2022-12-11T16:08:26.332Z,82.20
2022-12-11T16:10:56.157Z,82.04
2022-12-11T16:13:24.181Z,82.09
2022-12-11T16:15:54.332Z,81.73
2022-12-11T16:18:24.321Z,81.91
2022-12-11T16:20:53.076Z,81.47
2022-12-11T16:23:21.916Z,81.73
2022-12-11T16:25:51.988Z,82.03
2022-12-11T16:28:21.920Z,81.81
2022-12-11T16:30:49.985Z,82.13
2022-12-11T16:33:18.364Z,81.81
2022-12-11T16:35:46.336Z,81.97
2022-12-11T16:38:14.282Z,81.66
2022-12-11T16:40:42.601Z,81.47
2022-12-11T16:43:12.010Z,81.72
2022-12-11T16:45:42.078Z,81.43
2022-12-11T16:48:10.861Z,81.84
2022-12-11T16:50:40.942Z,81.80
2022-12-11T16:53:08.976Z,82.05
2022-12-11T16:55:36.940Z,81.82
2022-12-11T16:58:04.897Z,81.98
2022-12-11T17:00:34.393Z,82.56
2022-12-11T17:03:02.478Z,82.88
2022-12-11T17:05:30.393Z,82.87
2022-12-11T17:07:59.084Z,83.44
2022-12-11T17:10:27.090Z,83.60
2022-12-11T17:12:55.217Z,83.36
2022-12-11T17:15:23.266Z,83.55
2022-12-11T17:17:52.585Z,83.56
2022-12-11T17:20:20.333Z,83.41
2022-12-11T17:22:48.403Z,83.30
2022-12-11T17:25:22.244Z,83.32
2022-12-11T17:27:50.239Z,83.82
2022-12-11T17:30:18.284Z,83.41
2022-12-11T17:32:49.141Z,83.50
2022-12-11T17:35:18.846Z,83.86
2022-12-11T17:37:47.199Z,83.89
2022-12-11T17:40:15.231Z,83.91
2022-12-11T17:42:44.065Z,84.08
2022-12-11T17:45:12.983Z,84.16
2022-12-11T17:47:41.270Z,83.99
2022-12-11T17:50:09.880Z,83.80
2022-12-11T17:52:44.000Z,83.87
2022-12-11T17:55:12.780Z,83.81
2022-12-11T17:57:41.069Z,84.11
2022-12-11T18:00:10.447Z,84.03
2022-12-11T18:02:40.285Z,84.17
2022-12-11T18:05:09.013Z,84.17
2022-12-11T18:07:39.502Z,84.35
2022-12-11T18:10:07.970Z,84.33
2022-12-11T18:12:35.953Z,84.44
2022-12-11T18:15:04.596Z,84.59
2022-12-11T18:17:32.801Z,84.41
2022-12-11T18:20:00.769Z,84.73
2022-12-11T18:22:28.802Z,84.42
2022-12-11T18:24:59.415Z,84.68
2022-12-11T18:27:28.366Z,84.71
2022-12-11T18:29:56.328Z,84.88
2022-12-11T18:32:24.679Z,84.72
2022-12-11T18:34:52.679Z,84.68
2022-12-11T18:37:26.301Z,84.78
2022-12-11T18:39:56.151Z,84.54
2022-12-11T18:42:32.737Z,84.52
2022-12-11T18:45:01.206Z,84.60
2022-12-11T18:47:29.292Z,84.73
2022-12-11T18:49:59.185Z,84.58
2022-12-11T18:52:29.166Z,84.33
2022-12-11T18:54:57.503Z,84.62
2022-12-11T18:57:26.820Z,84.51
2022-12-11T18:59:54.898Z,84.60
2022-12-11T19:02:23.266Z,84.83
2022-12-11T19:04:51.265Z,84.63
2022-12-11T19:07:19.186Z,84.75
2022-12-11T19:09:48.397Z,84.74
2022-12-11T19:12:16.919Z,84.90
2022-12-11T19:14:46.313Z,84.72
2022-12-11T19:17:14.227Z,84.69
2022-12-11T19:19:43.215Z,84.70
2022-12-11T19:22:11.205Z,84.74
2022-12-11T19:24:39.266Z,84.62
2022-12-11T19:27:13.473Z,84.61
2022-12-11T19:29:41.799Z,84.51
2022-12-11T19:32:11.170Z,84.34
2022-12-11T19:34:39.520Z,84.52
2022-12-11T19:37:07.477Z,84.27
2022-12-11T19:39:35.461Z,84.19
2022-12-11T19:42:03.424Z,84.16
2022-12-11T19:44:32.904Z,83.91
2022-12-11T19:47:01.095Z,84.24
2022-12-11T19:49:30.479Z,84.15
2022-12-11T19:51:58.477Z,84.39
2022-12-11T19:54:27.468Z,84.66
2022-12-11T19:56:55.443Z,84.57
2022-12-11T19:59:23.319Z,84.35
2022-12-11T20:01:51.303Z,84.42
2022-12-11T20:04:19.995Z,84.40
2022-12-11T20:06:49.442Z,84.45
2022-12-11T20:09:18.155Z,84.74
2022-12-11T20:11:47.398Z,84.23
2022-12-11T20:14:22.537Z,84.29
2022-12-11T20:17:11.009Z,84.26
2022-12-11T20:19:41.687Z,84.53
2022-12-11T20:22:11.556Z,84.48
2022-12-11T20:24:39.538Z,84.94
2022-12-11T20:27:07.633Z,84.93
2022-12-11T20:29:35.602Z,84.93
2022-12-11T20:32:05.769Z,85.04
2022-12-11T20:34:33.860Z,85.06
2022-12-11T20:37:01.774Z,85.30
2022-12-11T20:39:32.036Z,85.36
2022-12-11T20:42:01.179Z,85.62
2022-12-11T20:44:29.176Z,85.85
2022-12-11T20:46:57.103Z,85.88
2022-12-11T20:49:25.034Z,86.02
2022-12-11T20:51:56.831Z,86.28
2022-12-11T20:54:24.825Z,86.25
2022-12-11T20:56:54.133Z,86.06
2022-12-11T20:59:22.726Z,86.35
2022-12-11T21:01:53.347Z,85.97
2022-12-11T21:04:21.541Z,85.77
2022-12-11T21:06:55.201Z,85.79
2022-12-11T21:09:24.903Z,85.47
2022-12-11T21:11:57.617Z,84.38
2022-12-11T21:14:25.679Z,82.73
2022-12-11T21:16:53.706Z,81.93
2022-12-11T21:19:21.701Z,81.66
2022-12-11T21:21:50.377Z,80.80
2022-12-11T21:24:21.229Z,80.37
2022-12-11T21:26:49.911Z,79.82
2022-12-11T21:29:19.525Z,79.55
2022-12-11T21:31:47.616Z,79.49
2022-12-11T21:34:19.372Z,78.99
2022-12-11T21:36:54.639Z,78.72
2022-12-11T21:39:22.612Z,78.28
2022-12-11T21:42:00.540Z,78.06
2022-12-11T21:47:18.156Z,77.26
2022-12-11T21:49:46.079Z,77.09
2022-12-11T21:52:14.653Z,77.11
2022-12-11T21:54:45.156Z,77.00
2022-12-11T21:57:26.515Z,77.00
2022-12-11T22:00:02.664Z,76.20
2022-12-11T22:02:41.299Z,75.98
2022-12-11T22:05:10.815Z,75.90
2022-12-11T22:07:39.039Z,75.99
2022-12-11T22:10:08.150Z,76.00
2022-12-11T22:12:36.118Z,76.56
2022-12-11T22:15:06.540Z,76.66
2022-12-11T22:17:34.491Z,77.06
2022-12-11T22:20:02.400Z,77.15
2022-12-11T22:22:30.419Z,77.48
2022-12-11T22:24:58.386Z,77.41
2022-12-11T22:27:26.283Z,77.37
2022-12-11T22:29:55.242Z,76.92
2022-12-11T22:32:24.556Z,77.29
2022-12-11T22:34:52.369Z,77.29
2022-12-11T22:37:20.309Z,77.27
2022-12-11T22:39:48.428Z,77.13
2022-12-11T22:42:16.353Z,77.49
2022-12-11T22:44:44.322Z,77.67
2022-12-11T22:47:12.425Z,78.17
2022-12-11T22:49:41.748Z,78.23
2022-12-11T22:52:09.988Z,77.89
2022-12-11T22:54:39.875Z,78.02
2022-12-11T22:57:07.976Z,77.88
2022-12-11T22:59:36.714Z,78.37
2022-12-11T23:02:04.871Z,78.38
2022-12-11T23:04:33.155Z,78.74
2022-12-11T23:07:02.685Z,79.04
2022-12-11T23:09:30.798Z,78.95
2022-12-11T23:11:58.834Z,79.31
2022-12-11T23:14:26.833Z,79.56
2022-12-11T23:16:54.891Z,78.96
2022-12-11T23:19:25.618Z,78.60
2022-12-11T23:21:54.246Z,78.90
2022-12-11T23:24:24.270Z,78.75
2022-12-11T23:26:52.302Z,78.52
2022-12-11T23:29:20.312Z,78.35
2022-12-11T23:31:48.299Z,77.97
2022-12-11T23:34:16.262Z,77.83
2022-12-11T23:36:44.470Z,77.76
2022-12-11T23:39:12.548Z,77.68
2022-12-11T23:41:43.678Z,77.85
2022-12-11T23:44:12.392Z,77.84
2022-12-11T23:46:42.625Z,77.88
2022-12-11T23:49:10.607Z,78.17
2022-12-11T23:51:38.536Z,77.84
2022-12-11T23:54:06.575Z,78.08
2022-12-11T23:56:34.579Z,77.97
2022-12-11T23:59:03.894Z,78.22
